Time;durP1;ratioP1;P1;durP2;ratioP2;P2;SDS_P1;SDS_P2;PMS_P1;PMS_P2;Temp;Humidity;BMP_temperature;BMP_pressure;BME280_temperature;BME280_humidity;BME280_pressure;Samples;Min_cycle;Max_cycle;Signal;HPM_P1;HPM_P2
2024/02/27 00:02:12;;;;;;;10.30;6.38;;;1.30;99.90;;;;;;4994193;28;20118;-75
2024/02/27 00:04:43;;;;;;;11.90;6.53;;;1.30;99.90;;;;;;4992748;28;20065;-75
2024/02/27 00:07:11;;;;;;;9.57;6.30;;;1.30;99.90;;;;;;4992186;28;20145;-75
2024/02/27 00:09:45;;;;;;;13.88;8.63;;;1.40;99.90;;;;;;4992801;28;20423;-75
2024/02/27 00:12:12;;;;;;;8.65;5.13;;;1.40;99.90;;;;;;4994071;28;20050;-75
2024/02/27 00:14:39;;;;;;;8.90;5.63;;;1.40;99.90;;;;;;4993862;28;20047;-75
2024/02/27 00:17:06;;;;;;;12.63;6.53;;;1.40;99.90;;;;;;4992823;28;20049;-75
2024/02/27 00:19:33;;;;;;;8.02;5.93;;;1.40;99.90;;;;;;4992673;28;20117;-75
2024/02/27 00:22:01;;;;;;;10.27;5.88;;;1.40;99.90;;;;;;4993976;28;20587;-75
2024/02/27 00:24:28;;;;;;;7.07;5.68;;;1.50;99.90;;;;;;4992700;28;20038;-75
2024/02/27 00:26:55;;;;;;;11.65;7.00;;;1.40;99.90;;;;;;4992296;28;20042;-75
2024/02/27 00:29:22;;;;;;;12.05;6.72;;;1.30;99.90;;;;;;4992834;28;20053;-75
2024/02/27 00:31:49;;;;;;;9.65;6.60;;;1.30;99.90;;;;;;5008678;28;20065;-75
2024/02/27 00:34:16;;;;;;;10.90;7.20;;;1.30;99.90;;;;;;4976514;28;20050;-75
2024/02/27 00:36:43;;;;;;;10.52;6.97;;;1.20;99.90;;;;;;4993326;28;20050;-75
2024/02/27 00:39:11;;;;;;;16.25;7.85;;;1.30;99.90;;;;;;4992426;28;20052;-75
2024/02/27 00:41:42;;;;;;;11.63;7.60;;;1.20;99.90;;;;;;4992072;28;20057;-75
2024/02/27 00:44:10;;;;;;;12.60;7.05;;;1.30;99.90;;;;;;4992559;28;20078;-75
2024/02/27 00:46:37;;;;;;;12.02;7.30;;;1.20;99.90;;;;;;4993514;28;20049;-75
2024/02/27 00:49:04;;;;;;;12.05;6.88;;;1.20;99.90;;;;;;4992256;28;20046;-75
2024/02/27 00:51:31;;;;;;;11.20;6.90;;;1.10;99.90;;;;;;4992052;28;20538;-75
2024/02/27 00:53:59;;;;;;;11.57;6.45;;;1.00;99.90;;;;;;4976334;28;20563;-75
2024/02/27 00:56:26;;;;;;;18.52;12.95;;;1.00;99.90;;;;;;4993594;28;20434;-75
2024/02/27 00:58:53;;;;;;;10.95;6.30;;;0.90;99.90;;;;;;4991906;28;20054;-75
2024/02/27 01:01:20;;;;;;;11.60;6.43;;;0.90;99.90;;;;;;4992171;28;20038;-75
2024/02/27 01:03:47;;;;;;;15.88;6.57;;;0.90;99.90;;;;;;4975680;28;20046;-75
2024/02/27 01:06:14;;;;;;;14.63;8.48;;;0.80;99.90;;;;;;5008493;28;20089;-75
2024/02/27 01:08:41;;;;;;;14.05;8.07;;;0.80;99.90;;;;;;5008422;28;20053;-75
2024/02/27 01:11:08;;;;;;;15.93;8.77;;;0.70;99.90;;;;;;4991918;28;20109;-75
2024/02/27 01:13:36;;;;;;;15.32;8.20;;;0.70;99.90;;;;;;4991755;28;20133;-75
2024/02/27 01:16:03;;;;;;;11.40;6.68;;;0.70;99.90;;;;;;4991831;28;20060;-75
2024/02/27 01:18:30;;;;;;;11.55;6.78;;;0.60;99.90;;;;;;5007975;28;20046;-75
2024/02/27 01:20:58;;;;;;;14.15;8.10;;;0.60;99.90;;;;;;4992833;28;20136;-75
2024/02/27 01:23:25;;;;;;;11.98;7.60;;;0.60;99.90;;;;;;4991748;28;20093;-75
2024/02/27 01:25:52;;;;;;;15.38;7.32;;;0.60;99.90;;;;;;5007893;28;20538;-75
2024/02/27 01:28:19;;;;;;;12.48;10.52;;;0.50;99.90;;;;;;4993176;28;20545;-75
2024/02/27 01:30:46;;;;;;;12.27;7.10;;;0.40;99.90;;;;;;4992745;28;20097;-75
2024/02/27 01:33:13;;;;;;;12.65;8.88;;;0.40;99.90;;;;;;4991743;28;20385;-75
2024/02/27 01:35:40;;;;;;;17.73;8.57;;;0.40;99.90;;;;;;5007950;28;20044;-75
2024/02/27 01:38:07;;;;;;;15.35;8.55;;;0.40;99.90;;;;;;4991508;28;20062;-75
2024/02/27 01:40:35;;;;;;;17.17;8.63;;;0.30;99.90;;;;;;4975967;28;20043;-75
2024/02/27 01:43:02;;;;;;;15.02;8.05;;;0.30;99.90;;;;;;4991264;28;20050;-75
2024/02/27 01:45:29;;;;;;;16.33;8.50;;;0.40;99.90;;;;;;5007992;28;20039;-75
2024/02/27 01:47:56;;;;;;;15.35;8.20;;;0.40;99.90;;;;;;4991360;28;20053;-75
2024/02/27 01:50:24;;;;;;;17.42;7.78;;;0.40;99.90;;;;;;4991623;28;20070;-75
2024/02/27 01:52:52;;;;;;;15.38;8.05;;;0.40;99.90;;;;;;4975246;28;20046;-74
2024/02/27 01:55:19;;;;;;;17.90;9.48;;;0.30;99.90;;;;;;4992795;28;20042;-74
2024/02/27 01:57:48;;;;;;;14.68;9.00;;;0.30;99.90;;;;;;4991576;28;20112;-75
2024/02/27 02:00:15;;;;;;;15.18;9.43;;;0.20;99.90;;;;;;4992655;28;20105;-75
2024/02/27 02:02:45;;;;;;;16.48;10.70;;;0.20;99.90;;;;;;4991256;28;20395;-74
2024/02/27 02:05:12;;;;;;;17.75;9.05;;;0.20;99.90;;;;;;5023887;28;20050;-75
2024/02/27 02:07:40;;;;;;;15.70;7.50;;;0.10;99.90;;;;;;4992614;28;20100;-74
2024/02/27 02:10:12;;;;;;;13.48;7.97;;;0.10;99.90;;;;;;4992463;28;20046;-74
2024/02/27 02:12:39;;;;;;;15.05;8.30;;;0.10;99.90;;;;;;4992538;28;20044;-75
2024/02/27 02:15:07;;;;;;;11.43;7.80;;;0.00;99.90;;;;;;4975384;28;20050;-74
2024/02/27 02:17:34;;;;;;;16.77;11.02;;;0.00;99.90;;;;;;4991377;28;20466;-74
2024/02/27 02:20:04;;;;;;;17.27;11.32;;;0.00;99.90;;;;;;5007230;28;20715;-74
2024/02/27 02:22:33;;;;;;;15.93;7.13;;;-0.10;99.90;;;;;;5022817;28;20047;-75
2024/02/27 02:25:00;;;;;;;15.30;7.47;;;-0.10;99.90;;;;;;4991150;28;20034;-74
2024/02/27 02:27:30;;;;;;;15.13;7.93;;;-0.10;99.90;;;;;;5007455;28;20661;-74
2024/02/27 02:29:57;;;;;;;14.23;7.45;;;-0.20;99.90;;;;;;4959729;28;20043;-75
2024/02/27 02:32:24;;;;;;;18.38;9.48;;;-0.20;99.90;;;;;;4995837;28;20625;-75
2024/02/27 02:34:51;;;;;;;15.40;8.60;;;-0.20;99.90;;;;;;4996005;28;20066;-74
2024/02/27 02:37:18;;;;;;;16.23;8.85;;;-0.20;99.90;;;;;;4994766;28;20535;-74
2024/02/27 02:39:45;;;;;;;23.77;9.30;;;-0.20;99.90;;;;;;4995965;28;20089;-75
2024/02/27 02:42:13;;;;;;;16.08;8.38;;;-0.20;99.90;;;;;;4995663;28;20046;-74
2024/02/27 02:44:40;;;;;;;19.98;9.23;;;-0.20;99.90;;;;;;4978244;28;20502;-74
2024/02/27 02:47:07;;;;;;;21.55;9.00;;;-0.20;99.90;;;;;;4994242;28;20050;-75
2024/02/27 02:49:34;;;;;;;18.27;8.40;;;-0.20;99.90;;;;;;4994515;28;20042;-75
2024/02/27 02:52:04;;;;;;;17.98;9.68;;;-0.20;99.90;;;;;;4995427;28;20102;-75
2024/02/27 02:54:31;;;;;;;20.20;8.82;;;-0.10;99.90;;;;;;4994404;28;20066;-74
2024/02/27 02:56:58;;;;;;;22.20;8.57;;;-0.10;99.90;;;;;;4994170;28;20480;-75
2024/02/27 02:59:25;;;;;;;19.48;8.88;;;0.00;99.90;;;;;;4994434;28;20053;-75
2024/02/27 03:01:52;;;;;;;16.85;7.70;;;0.00;99.90;;;;;;4995484;28;20042;-75
2024/02/27 03:04:19;;;;;;;23.90;9.00;;;0.00;99.90;;;;;;4993997;28;20070;-75
2024/02/27 03:06:46;;;;;;;15.45;7.53;;;0.10;99.90;;;;;;4978003;28;20085;-75
2024/02/27 03:09:13;;;;;;;18.27;8.50;;;0.10;99.90;;;;;;4993758;28;20496;-75
2024/02/27 03:11:40;;;;;;;19.13;8.75;;;0.10;99.90;;;;;;4994075;28;20053;-75
2024/02/27 03:14:07;;;;;;;15.05;10.75;;;0.10;99.90;;;;;;4993824;28;20455;-75
2024/02/27 03:16:34;;;;;;;15.02;7.43;;;0.10;99.90;;;;;;5026730;28;20093;-75
2024/02/27 03:19:02;;;;;;;16.50;7.15;;;0.10;99.90;;;;;;4993738;28;20101;-75
2024/02/27 03:21:32;;;;;;;24.02;9.30;;;0.20;99.90;;;;;;4994936;28;20046;-75
2024/02/27 03:23:59;;;;;;;16.45;7.95;;;0.10;99.90;;;;;;4994956;28;20050;-75
2024/02/27 03:26:26;;;;;;;18.42;9.45;;;0.10;99.90;;;;;;4977793;28;20074;-75
2024/02/27 03:28:53;;;;;;;20.42;9.40;;;0.10;99.90;;;;;;4993847;28;20077;-75
2024/02/27 03:31:20;;;;;;;23.27;9.32;;;0.00;99.90;;;;;;4993450;28;20051;-74
2024/02/27 03:33:47;;;;;;;21.88;9.93;;;0.00;99.90;;;;;;4993883;28;20038;-75
2024/02/27 03:36:14;;;;;;;15.98;8.60;;;0.00;99.90;;;;;;4993549;28;20058;-75
2024/02/27 03:38:42;;;;;;;19.38;9.95;;;0.00;99.90;;;;;;4993600;28;20480;-75
2024/02/27 03:41:13;;;;;;;22.58;10.00;;;0.00;99.90;;;;;;4991563;28;20124;-75
2024/02/27 03:43:43;;;;;;;24.20;9.82;;;-0.10;99.90;;;;;;4985735;28;20049;-75
2024/02/27 03:46:10;;;;;;;23.33;9.68;;;-0.10;99.90;;;;;;4992696;28;20504;-75
2024/02/27 03:48:37;;;;;;;23.55;9.98;;;-0.10;99.90;;;;;;4994164;28;20538;-75
2024/02/27 03:51:05;;;;;;;21.00;9.73;;;-0.10;99.90;;;;;;4992256;28;20046;-75
2024/02/27 03:53:32;;;;;;;29.38;11.10;;;0.00;99.90;;;;;;4994158;28;20038;-75
2024/02/27 03:55:59;;;;;;;19.80;8.73;;;-0.20;99.90;;;;;;4993157;28;20054;-75
2024/02/27 03:58:26;;;;;;;23.73;8.88;;;-0.10;99.90;;;;;;5009132;28;20514;-75
2024/02/27 04:00:53;;;;;;;14.43;7.10;;;0.20;99.90;;;;;;5004607;28;20491;-75
2024/02/27 04:03:20;;;;;;;23.50;10.65;;;0.20;99.90;;;;;;4992629;28;20063;-75
2024/02/27 04:05:47;;;;;;;22.52;10.25;;;0.30;99.90;;;;;;5007780;28;20053;-75
2024/02/27 04:08:14;;;;;;;24.05;11.10;;;0.40;99.90;;;;;;4992747;28;20046;-75
2024/02/27 04:10:41;;;;;;;29.88;10.88;;;0.50;99.90;;;;;;5025744;28;20039;-75
2024/02/27 04:13:08;;;;;;;19.85;8.80;;;0.70;99.90;;;;;;4976533;28;20097;-75
2024/02/27 04:15:36;;;;;;;12.70;6.55;;;0.90;99.90;;;;;;4992879;28;20096;-75
2024/02/27 04:18:04;;;;;;;22.73;9.80;;;1.00;99.90;;;;;;4976914;28;20053;-75
2024/02/27 04:20:31;;;;;;;22.02;9.63;;;1.20;99.90;;;;;;4992785;28;20050;-75
2024/02/27 04:22:58;;;;;;;22.33;9.70;;;1.40;99.90;;;;;;4993917;28;20093;-75
2024/02/27 04:25:25;;;;;;;29.52;12.38;;;1.70;99.90;;;;;;4992553;28;20077;-75
2024/02/27 04:27:52;;;;;;;34.92;11.30;;;1.70;99.90;;;;;;4976348;28;20042;-75
2024/02/27 04:30:19;;;;;;;28.73;11.07;;;2.10;99.90;;;;;;4993519;28;20039;-75
2024/02/27 04:32:46;;;;;;;22.08;10.50;;;2.20;99.90;;;;;;4992272;28;20058;-75
2024/02/27 04:35:14;;;;;;;21.23;10.52;;;2.20;99.90;;;;;;5008391;28;20121;-75
2024/02/27 04:37:41;;;;;;;19.67;8.45;;;2.30;99.90;;;;;;4976354;28;20057;-75
2024/02/27 04:40:09;;;;;;;19.80;10.07;;;2.40;99.90;;;;;;4976316;28;20042;-75
2024/02/27 04:42:36;;;;;;;26.02;10.88;;;2.60;99.90;;;;;;4992376;28;20065;-75
2024/02/27 04:45:03;;;;;;;26.48;10.95;;;2.70;99.90;;;;;;4993554;28;20511;-75
2024/02/27 04:47:30;;;;;;;18.40;9.00;;;2.80;99.90;;;;;;4992211;28;20100;-75
2024/02/27 04:49:58;;;;;;;13.75;8.75;;;2.90;99.90;;;;;;4993744;28;20053;-75
2024/02/27 04:52:25;;;;;;;16.17;7.43;;;3.00;99.90;;;;;;4992019;28;20093;-75
2024/02/27 04:54:52;;;;;;;22.23;10.13;;;3.10;99.90;;;;;;4991872;28;20124;-75
2024/02/27 04:57:20;;;;;;;18.73;9.13;;;3.20;99.90;;;;;;4991958;28;20105;-75
2024/02/27 04:59:47;;;;;;;20.13;10.27;;;3.30;99.90;;;;;;4976234;28;20078;-75
2024/02/27 05:02:14;;;;;;;16.75;10.25;;;3.30;99.90;;;;;;4991794;28;20053;-75
2024/02/27 05:04:41;;;;;;;14.93;9.32;;;3.40;99.90;;;;;;4975832;28;20463;-75
2024/02/27 05:07:08;;;;;;;18.45;10.52;;;3.40;99.90;;;;;;4991825;28;20476;-75
2024/02/27 05:09:35;;;;;;;15.80;8.70;;;3.50;99.90;;;;;;4975784;28;20048;-75
2024/02/27 05:12:02;;;;;;;9.48;5.95;;;3.50;99.90;;;;;;4991949;28;20038;-75
2024/02/27 05:14:29;;;;;;;13.65;7.03;;;3.60;99.90;;;;;;4991721;28;20097;-75
2024/02/27 05:16:56;;;;;;;19.73;9.85;;;3.60;99.90;;;;;;4991815;28;20553;-75
2024/02/27 05:19:23;;;;;;;17.98;9.48;;;3.60;99.90;;;;;;4991717;28;20042;-75
2024/02/27 05:21:50;;;;;;;20.58;9.70;;;3.60;99.90;;;;;;4991739;28;20061;-75
2024/02/27 05:24:17;;;;;;;18.00;10.27;;;3.70;99.90;;;;;;4991585;28;20046;-75
2024/02/27 05:26:44;;;;;;;17.02;9.18;;;3.70;99.90;;;;;;4992969;28;20043;-75
2024/02/27 05:29:11;;;;;;;16.50;9.60;;;3.70;99.90;;;;;;4991938;28;20038;-75
2024/02/27 05:31:38;;;;;;;18.83;11.20;;;3.70;99.90;;;;;;4992681;28;20447;-75
2024/02/27 05:34:05;;;;;;;13.50;9.80;;;3.80;99.90;;;;;;4993016;28;20054;-75
2024/02/27 05:36:33;;;;;;;16.98;9.90;;;3.80;99.90;;;;;;4991513;28;20046;-75
2024/02/27 05:39:00;;;;;;;18.73;8.93;;;3.80;99.90;;;;;;4991710;28;20057;-75
2024/02/27 05:41:27;;;;;;;15.32;9.30;;;3.80;99.90;;;;;;4992750;28;20045;-75
2024/02/27 05:43:54;;;;;;;18.20;9.98;;;3.80;99.90;;;;;;4992964;28;20117;-75
2024/02/27 05:46:21;;;;;;;16.60;10.52;;;3.70;99.90;;;;;;4991341;28;20417;-75
2024/02/27 05:48:48;;;;;;;16.70;9.10;;;3.70;99.90;;;;;;4991692;28;20057;-75
2024/02/27 05:51:15;;;;;;;18.95;9.20;;;3.70;99.90;;;;;;4991586;28;20073;-75
2024/02/27 05:53:43;;;;;;;15.23;7.72;;;3.70;99.90;;;;;;4991452;28;20053;-75
2024/02/27 05:56:10;;;;;;;16.15;8.43;;;3.60;99.90;;;;;;4991488;28;20093;-75
2024/02/27 05:58:37;;;;;;;16.98;8.68;;;3.60;99.90;;;;;;4992806;28;20050;-75
2024/02/27 06:01:04;;;;;;;16.10;8.82;;;3.60;99.90;;;;;;4990094;28;20050;-75
2024/02/27 06:03:31;;;;;;;15.45;8.82;;;3.50;99.90;;;;;;4992404;28;20038;-75
2024/02/27 06:06:00;;;;;;;11.93;8.07;;;3.60;99.90;;;;;;5008036;28;20050;-75
2024/02/27 06:08:27;;;;;;;12.90;8.35;;;3.60;99.90;;;;;;5010830;28;20558;-75
2024/02/27 06:10:54;;;;;;;17.42;9.43;;;3.60;99.90;;;;;;4979276;28;20077;-75
2024/02/27 06:13:21;;;;;;;9.77;5.50;;;3.60;99.90;;;;;;4996172;28;20049;-75
2024/02/27 06:15:48;;;;;;;16.02;10.80;;;3.80;99.90;;;;;;4995166;28;20467;-75
2024/02/27 06:18:15;;;;;;;10.13;5.78;;;3.70;99.90;;;;;;5011318;28;20078;-75
2024/02/27 06:23:28;;;;;;;14.88;8.02;;;3.80;99.90;;;;;;5010966;28;20043;-75
2024/02/27 06:25:55;;;;;;;15.10;8.93;;;3.80;99.90;;;;;;5011136;28;20046;-75
2024/02/27 06:28:23;;;;;;;13.30;8.05;;;3.80;99.90;;;;;;4994708;28;20049;-75
2024/02/27 06:30:50;;;;;;;14.55;8.82;;;4.00;99.90;;;;;;4994848;28;20141;-75
2024/02/27 06:33:17;;;;;;;13.57;9.05;;;3.90;99.90;;;;;;4994570;28;20468;-75
2024/02/27 06:35:45;;;;;;;13.80;9.25;;;3.90;99.90;;;;;;4994567;28;20121;-75
2024/02/27 06:38:12;;;;;;;14.45;10.05;;;4.10;99.90;;;;;;4994665;28;20046;-75
2024/02/27 06:40:43;;;;;;;15.18;8.60;;;4.00;99.90;;;;;;5010709;28;20050;-75
2024/02/27 06:43:10;;;;;;;17.50;9.60;;;4.00;99.90;;;;;;4995158;28;20054;-75
2024/02/27 06:45:37;;;;;;;13.00;8.82;;;4.00;99.90;;;;;;4994432;28;20169;-75
2024/02/27 06:48:04;;;;;;;15.43;9.82;;;4.30;99.90;;;;;;4994728;28;20575;-75
2024/02/27 06:50:31;;;;;;;15.07;10.27;;;4.10;99.90;;;;;;4995396;28;20042;-75
2024/02/27 06:52:59;;;;;;;14.07;8.60;;;4.10;99.90;;;;;;4995494;28;20047;-75
2024/02/27 06:55:26;;;;;;;16.92;10.32;;;4.10;99.90;;;;;;4995217;28;20073;-75
2024/02/27 06:57:53;;;;;;;13.43;8.68;;;4.20;99.90;;;;;;4995440;28;20088;-75
2024/02/27 07:00:20;;;;;;;18.50;9.30;;;4.20;99.90;;;;;;4995488;28;20038;-75
2024/02/27 07:02:48;;;;;;;16.85;9.50;;;4.20;99.90;;;;;;4993680;28;20108;-76
2024/02/27 07:05:16;;;;;;;16.95;9.25;;;4.20;99.90;;;;;;5010271;28;20057;-75
2024/02/27 07:07:44;;;;;;;18.48;9.25;;;4.30;99.90;;;;;;4995092;28;20039;-75
2024/02/27 07:10:13;;;;;;;15.73;10.02;;;4.30;99.90;;;;;;4994080;28;20492;-75
2024/02/27 07:12:43;;;;;;;16.38;9.52;;;4.30;99.90;;;;;;5009550;28;20089;-75
2024/02/27 07:15:11;;;;;;;16.50;9.18;;;4.30;99.90;;;;;;4977861;28;20053;-75
2024/02/27 07:17:38;;;;;;;17.40;9.93;;;4.40;99.90;;;;;;4994678;28;20042;-76
2024/02/27 07:20:09;;;;;;;14.27;8.18;;;4.40;99.90;;;;;;4993914;28;20052;-76
2024/02/27 07:22:36;;;;;;;18.25;10.63;;;4.50;99.90;;;;;;4993713;28;20100;-75
2024/02/27 07:25:04;;;;;;;15.27;8.98;;;4.50;99.90;;;;;;4994950;28;20038;-74
2024/02/27 07:27:31;;;;;;;14.45;9.77;;;4.60;99.90;;;;;;4977539;28;20055;-74
2024/02/27 07:29:58;;;;;;;17.83;11.00;;;4.70;99.90;;;;;;5010026;28;20046;-74
2024/02/27 07:32:25;;;;;;;14.90;9.50;;;4.70;99.90;;;;;;4994749;28;20054;-74
2024/02/27 07:34:52;;;;;;;17.33;9.57;;;4.70;99.90;;;;;;4993331;28;20050;-74
2024/02/27 07:37:19;;;;;;;17.05;10.15;;;4.80;99.90;;;;;;4993726;28;20042;-74
2024/02/27 07:39:47;;;;;;;16.17;10.32;;;4.80;99.90;;;;;;5009388;28;20054;-74
2024/02/27 07:42:14;;;;;;;15.88;9.27;;;4.80;99.90;;;;;;5025509;28;20141;-74
2024/02/27 07:44:41;;;;;;;18.52;13.43;;;4.90;99.90;;;;;;4993088;28;20436;-75
2024/02/27 07:47:08;;;;;;;17.65;11.75;;;5.00;99.90;;;;;;5009562;28;20407;-74
2024/02/27 07:49:36;;;;;;;16.13;10.75;;;4.90;99.90;;;;;;4994532;28;20039;-74
2024/02/27 07:52:03;;;;;;;18.25;10.52;;;5.00;99.90;;;;;;4993130;28;20105;-74
2024/02/27 07:54:30;;;;;;;14.18;9.70;;;5.00;99.90;;;;;;4993185;28;20058;-74
2024/02/27 07:56:57;;;;;;;14.07;8.57;;;5.00;99.90;;;;;;4993116;28;20091;-74
2024/02/27 07:59:24;;;;;;;13.80;8.77;;;5.10;99.90;;;;;;4994513;28;20130;-75
2024/02/27 08:01:51;;;;;;;16.45;9.65;;;5.10;99.90;;;;;;4992451;28;20053;-74
2024/02/27 08:04:18;;;;;;;16.30;9.55;;;5.10;99.90;;;;;;4992983;28;20065;-75
2024/02/27 08:06:45;;;;;;;15.13;9.10;;;5.10;99.90;;;;;;4993049;28;20503;-74
2024/02/27 08:09:15;;;;;;;15.57;9.88;;;5.20;99.90;;;;;;5009512;28;20074;-74
2024/02/27 08:11:43;;;;;;;14.93;9.40;;;5.20;99.90;;;;;;4977239;28;20042;-74
2024/02/27 08:14:10;;;;;;;15.98;10.05;;;5.20;99.90;;;;;;4994260;28;20042;-74
2024/02/27 08:16:37;;;;;;;17.10;10.48;;;5.20;99.90;;;;;;4993843;28;20055;-74
2024/02/27 08:19:04;;;;;;;15.93;9.48;;;5.20;99.90;;;;;;4993983;28;20050;-75
2024/02/27 08:21:32;;;;;;;17.42;9.50;;;5.20;99.90;;;;;;4992773;28;20148;-74
2024/02/27 08:24:00;;;;;;;15.23;9.20;;;5.20;99.90;;;;;;4992401;28;20038;-75
2024/02/27 08:26:28;;;;;;;16.25;8.45;;;5.30;99.90;;;;;;4994104;28;20117;-74
2024/02/27 08:28:56;;;;;;;10.95;8.32;;;5.30;99.90;;;;;;4991882;28;20047;-74
2024/02/27 08:31:23;;;;;;;15.55;10.20;;;5.30;99.90;;;;;;4993698;28;20381;-74
2024/02/27 08:33:53;;;;;;;14.68;9.68;;;5.30;99.90;;;;;;4993755;28;20076;-74
2024/02/27 08:36:20;;;;;;;12.25;9.23;;;5.30;99.90;;;;;;4993629;28;20396;-74
2024/02/27 08:38:47;;;;;;;14.75;9.25;;;5.20;99.90;;;;;;4993348;28;20042;-74
2024/02/27 08:41:20;;;;;;;17.40;9.60;;;5.20;99.90;;;;;;4992358;28;20038;-74
2024/02/27 08:43:49;;;;;;;17.10;9.20;;;5.20;99.90;;;;;;5008279;28;20059;-75
2024/02/27 08:46:19;;;;;;;15.43;11.15;;;5.30;99.90;;;;;;4993703;28;20403;-74
2024/02/27 08:48:47;;;;;;;14.90;9.77;;;5.30;99.90;;;;;;4993150;28;20050;-74
2024/02/27 08:51:14;;;;;;;17.73;9.85;;;5.40;99.90;;;;;;4992821;28;20061;-75
2024/02/27 08:53:41;;;;;;;15.60;11.07;;;5.40;99.90;;;;;;4976083;28;20387;-74
2024/02/27 08:56:09;;;;;;;15.68;8.75;;;5.50;99.90;;;;;;5008103;28;20105;-74
2024/02/27 08:58:39;;;;;;;16.67;9.50;;;5.50;99.90;;;;;;4992160;28;20043;-74
2024/02/27 09:01:06;;;;;;;16.17;10.52;;;5.60;99.90;;;;;;4991753;28;20125;-75
2024/02/27 09:03:34;;;;;;;15.00;8.98;;;5.60;99.90;;;;;;5024576;28;20049;-75
2024/02/27 09:06:05;;;;;;;16.10;10.27;;;5.70;99.90;;;;;;4976054;28;20053;-74
2024/02/27 09:08:32;;;;;;;;;;;5.70;99.90;;;;;;4992370;28;20061;-74
2024/02/27 09:10:59;;;;;;;13.77;9.70;;;5.80;99.90;;;;;;4991841;28;20037;-74
2024/02/27 09:13:26;;;;;;;15.95;10.55;;;5.90;99.90;;;;;;4993119;28;20455;-74
2024/02/27 09:15:53;;;;;;;16.60;11.52;;;5.90;99.90;;;;;;5007974;28;20407;-74
2024/02/27 09:18:20;;;;;;;15.40;10.18;;;5.90;99.90;;;;;;4992974;28;20510;-75
2024/02/27 09:20:47;;;;;;;15.25;9.48;;;6.00;99.90;;;;;;4991506;28;20050;-74
2024/02/27 09:23:14;;;;;;;18.25;10.20;;;6.00;99.90;;;;;;4993002;28;20062;-74
2024/02/27 09:25:41;;;;;;;15.68;9.35;;;6.10;99.90;;;;;;5008000;28;20039;-74
2024/02/27 09:28:08;;;;;;;13.40;9.60;;;6.10;99.90;;;;;;4991633;28;20049;-75
2024/02/27 09:30:36;;;;;;;15.32;10.00;;;6.20;99.90;;;;;;5008122;28;20046;-75
2024/02/27 09:33:03;;;;;;;14.93;9.80;;;6.30;99.90;;;;;;4992663;28;20130;-74
2024/02/27 09:35:30;;;;;;;16.52;9.50;;;6.30;99.90;;;;;;4986676;28;20064;-74
2024/02/27 09:37:57;;;;;;;15.40;10.40;;;6.40;99.90;;;;;;5003061;28;20046;-74
2024/02/27 09:40:25;;;;;;;17.30;10.63;;;6.50;99.90;;;;;;5002269;28;20050;-74
2024/02/27 09:42:56;;;;;;;14.25;8.80;;;6.60;99.90;;;;;;5003644;28;20046;-74
2024/02/27 09:45:25;;;;;;;16.05;9.55;;;6.60;99.90;;;;;;5001552;28;20108;-74
2024/02/27 09:47:56;;;;;;;13.70;8.88;;;6.70;99.90;;;;;;5004361;28;20026;-74
2024/02/27 09:50:28;;;;;;;15.32;9.73;;;6.80;99.90;;;;;;4995156;28;20479;-74
2024/02/27 09:52:56;;;;;;;14.93;10.20;;;6.80;99.90;;;;;;4996505;28;20061;-74
2024/02/27 09:55:25;;;;;;;13.23;8.88;;;6.90;99.90;;;;;;5011848;28;20165;-74
2024/02/27 09:57:53;;;;;;;18.85;10.15;;;7.00;99.90;;;;;;4996579;28;20554;-75
2024/02/27 10:00:20;;;;;;;17.10;9.80;;;7.00;99.90;;;;;;4995473;28;20050;-75
2024/02/27 10:02:49;;;;;;;14.57;9.15;;;7.10;99.90;;;;;;4990446;28;20082;-75
2024/02/27 10:05:19;;;;;;;16.88;9.25;;;7.10;99.90;;;;;;4991737;28;20084;-75
2024/02/27 10:07:48;;;;;;;15.10;9.63;;;7.20;99.90;;;;;;4989971;28;20053;-75
2024/02/27 10:10:16;;;;;;;15.85;9.07;;;7.30;99.90;;;;;;4991857;28;20050;-75
2024/02/27 10:12:44;;;;;;;13.25;8.40;;;7.30;99.90;;;;;;4991886;28;20038;-75
2024/02/27 10:15:11;;;;;;;15.27;9.30;;;7.40;99.90;;;;;;4975628;28;20055;-74
2024/02/27 10:17:38;;;;;;;14.27;9.07;;;7.50;99.90;;;;;;4991916;28;20058;-75
2024/02/27 10:20:10;;;;;;;15.80;9.77;;;7.50;99.90;;;;;;4975221;28;20492;-75
2024/02/27 10:22:41;;;;;;;12.77;8.98;;;7.60;99.90;;;;;;4991258;28;20145;-75
2024/02/27 10:25:11;;;;;;;16.40;8.73;;;7.60;99.90;;;;;;4976443;28;20046;-75
2024/02/27 10:27:41;;;;;;;16.42;9.45;;;7.70;99.90;;;;;;4991662;28;20134;-75
2024/02/27 10:30:10;;;;;;;16.60;9.00;;;7.70;99.90;;;;;;4976414;28;20488;-75
2024/02/27 10:32:42;;;;;;;16.13;9.65;;;7.80;99.90;;;;;;4989428;28;20082;-75
2024/02/27 10:35:10;;;;;;;15.68;9.95;;;7.80;99.90;;;;;;4991234;28;20126;-75
2024/02/27 10:37:37;;;;;;;17.33;9.88;;;7.80;99.90;;;;;;4976727;28;20047;-75
2024/02/27 10:40:07;;;;;;;20.30;10.38;;;7.80;99.90;;;;;;4991200;28;20051;-75
2024/02/27 10:42:36;;;;;;;17.35;10.70;;;8.00;99.90;;;;;;4976498;28;20043;-75
2024/02/27 10:45:04;;;;;;;16.75;10.23;;;8.00;99.90;;;;;;4976160;28;20137;-75
2024/02/27 10:47:33;;;;;;;18.65;10.18;;;8.10;99.90;;;;;;4976375;28;20049;-75
2024/02/27 10:50:04;;;;;;;17.33;11.40;;;8.00;99.90;;;;;;4976197;28;20395;-75
2024/02/27 10:52:35;;;;;;;19.95;9.65;;;7.90;99.90;;;;;;4975903;28;20101;-75
2024/02/27 10:55:03;;;;;;;17.08;10.82;;;8.00;99.90;;;;;;4991002;28;20551;-75
2024/02/27 10:57:33;;;;;;;16.75;11.10;;;7.90;99.90;;;;;;4976366;28;20050;-75
2024/02/27 11:00:00;;;;;;;15.05;7.03;;;7.90;99.90;;;;;;4990810;28;20046;-75
2024/02/27 11:02:31;;;;;;;14.85;9.50;;;7.80;99.90;;;;;;4975975;28;20502;-75
2024/02/27 11:05:00;;;;;;;17.83;11.20;;;7.70;99.90;;;;;;4974561;28;20062;-75
2024/02/27 11:07:28;;;;;;;16.05;10.52;;;7.70;99.90;;;;;;5006818;28;20535;-75
2024/02/27 11:09:58;;;;;;;15.77;9.95;;;7.70;99.90;;;;;;4976073;28;20039;-75
2024/02/27 11:12:26;;;;;;;15.30;8.93;;;7.80;99.90;;;;;;4990766;28;20054;-75
2024/02/27 11:15:03;;;;;;;20.05;11.38;;;7.80;99.90;;;;;;4990740;28;20051;-76
2024/02/27 11:17:38;;;;;;;17.67;10.18;;;7.90;99.90;;;;;;4990710;28;20054;-75
2024/02/27 11:20:07;;;;;;;17.77;11.05;;;7.90;99.90;;;;;;4990583;28;20051;-75
2024/02/27 11:22:34;;;;;;;16.85;12.48;;;8.00;99.90;;;;;;4975935;28;20398;-75
2024/02/27 11:25:03;;;;;;;16.45;10.45;;;8.10;99.90;;;;;;4990458;28;20501;-75
2024/02/27 11:27:31;;;;;;;15.70;9.85;;;8.10;99.90;;;;;;4975745;28;20377;-75
2024/02/27 11:29:59;;;;;;;16.92;9.40;;;8.20;99.90;;;;;;4990609;28;20085;-75
2024/02/27 11:32:26;;;;;;;16.83;9.88;;;8.20;99.90;;;;;;4990427;28;20567;-75
2024/02/27 11:34:54;;;;;;;15.35;9.40;;;8.30;99.90;;;;;;4974489;28;20078;-75
2024/02/27 11:37:22;;;;;;;16.42;10.43;;;8.30;99.90;;;;;;4990135;28;20047;-75
2024/02/27 11:39:50;;;;;;;17.77;11.10;;;8.40;99.90;;;;;;4990484;28;20042;-75
2024/02/27 11:42:32;;;;;;;16.05;10.48;;;8.40;99.90;;;;;;4975104;28;20049;-75
2024/02/27 11:45:09;;;;;;;17.65;11.50;;;8.40;99.90;;;;;;4990088;28;20551;-75
2024/02/27 11:47:47;;;;;;;15.98;9.80;;;8.40;99.90;;;;;;5006201;28;20049;-75
2024/02/27 11:50:37;;;;;;;19.63;10.82;;;8.30;99.90;;;;;;4989948;28;20159;-75
2024/02/27 11:53:17;;;;;;;17.42;9.98;;;8.40;99.90;;;;;;4974886;28;20051;-75
2024/02/27 11:55:45;;;;;;;17.25;10.73;;;8.40;99.90;;;;;;4973903;28;20058;-75
2024/02/27 11:58:14;;;;;;;19.60;10.90;;;8.40;99.90;;;;;;4989635;28;20046;-75
2024/02/27 12:00:45;;;;;;;17.80;10.68;;;8.40;99.90;;;;;;4990153;28;20085;-75
2024/02/27 12:03:12;;;;;;;17.33;10.88;;;8.30;99.90;;;;;;4973893;28;20491;-75
2024/02/27 12:05:43;;;;;;;16.10;9.93;;;8.30;99.90;;;;;;4974848;28;20042;-75
2024/02/27 12:08:10;;;;;;;16.85;9.90;;;8.30;99.90;;;;;;4989305;28;20076;-75
2024/02/27 12:10:38;;;;;;;17.05;9.60;;;8.30;99.90;;;;;;4989876;28;20046;-75
2024/02/27 12:13:05;;;;;;;16.67;10.10;;;8.30;99.90;;;;;;4989886;28;20046;-75
2024/02/27 12:15:32;;;;;;;16.92;9.68;;;8.40;99.90;;;;;;4989715;28;20055;-75
2024/02/27 12:17:59;;;;;;;18.02;10.20;;;8.50;99.90;;;;;;4989491;28;20055;-75
2024/02/27 12:20:26;;;;;;;16.23;9.45;;;8.60;99.90;;;;;;4989401;28;20054;-75
2024/02/27 12:22:53;;;;;;;14.88;9.75;;;8.60;99.90;;;;;;4989443;28;20499;-75
2024/02/27 12:25:20;;;;;;;12.25;5.93;;;8.70;99.90;;;;;;4974260;28;20476;-75
2024/02/27 12:27:53;;;;;;;16.52;9.25;;;8.70;99.90;;;;;;4989405;28;20051;-75
2024/02/27 12:30:22;;;;;;;15.13;9.05;;;8.80;99.90;;;;;;4989175;28;20095;-75
2024/02/27 12:32:50;;;;;;;14.70;10.77;;;8.80;99.90;;;;;;4989304;28;20507;-75
2024/02/27 12:35:17;;;;;;;16.88;9.68;;;8.90;99.90;;;;;;4988940;28;20134;-75
2024/02/27 12:37:47;;;;;;;13.80;9.43;;;8.90;99.90;;;;;;4974340;28;20074;-75
2024/02/27 12:40:15;;;;;;;9.88;6.15;;;8.90;99.90;;;;;;4974236;28;20215;-75
2024/02/27 12:42:44;;;;;;;11.10;6.43;;;8.80;99.90;;;;;;4974199;28;20047;-75
2024/02/27 12:45:13;;;;;;;11.88;7.22;;;8.80;99.90;;;;;;4988752;28;20050;-75
2024/02/27 12:47:42;;;;;;;15.45;8.82;;;8.80;99.90;;;;;;4973932;28;20101;-75
2024/02/27 12:50:11;;;;;;;14.63;8.93;;;8.90;99.90;;;;;;4974264;28;20051;-75